Time;durP1;ratioP1;P1;durP2;ratioP2;P2;SDS_P1;SDS_P2;PMS_P1;PMS_P2;Temp;Humidity;BMP_temperature;BMP_pressure;BME280_temperature;BME280_humidity;BME280_pressure;Samples;Min_cycle;Max_cycle;Signal;HPM_P1;HPM_P2
2023/04/02 08:28:01;;;;;;;;;10.50;9.00;;;;;;;;5102381;27;13445;-73
2023/04/02 08:30:26;;;;;;;;;8.20;8.00;;;;;;;;5083025;28;13608;-74
2023/04/02 08:32:51;;;;;;;;;12.67;8.00;;;;;;;;5082089;28;13439;-73
2023/04/02 08:35:17;;;;;;;;;17.25;11.00;;;;;;;;5082556;28;13460;-73
2023/04/02 08:37:45;;;;;;;;;8.50;7.25;;;;;;;;5081568;28;13501;-73
2023/04/02 08:40:19;;;;;;;;;14.20;10.00;;;;;;;;5082958;28;13586;-77
2023/04/02 08:42:44;;;;;;;;;9.40;8.00;;;;;;;;5083228;28;13607;-74
2023/04/02 08:45:28;;;;;;;;;8.67;7.00;;;;;;;;5089990;28;14267;-76
2023/04/02 08:47:55;;;;;;;;;10.25;10.00;;;;;;;;5081577;28;13685;-74
2023/04/02 08:50:31;;;;;;;;;9.00;9.00;;;;;;;;5082462;28;13566;-72
2023/04/02 08:52:57;;;;;;;;;13.25;9.00;;;;;;;;5082825;28;13602;-76
2023/04/02 08:55:24;;;;;;;;;12.80;10.00;;;;;;;;5077770;28;13502;-76
2023/04/02 08:57:50;;;;;;;;;10.20;9.00;;;;;;;;5093606;28;13483;-76
2023/04/02 09:00:24;;;;;;;;;10.67;9.33;;;;;;;;5103135;28;14156;-76
2023/04/02 09:03:13;;;;;;;;;9.00;9.00;;;;;;;;5103552;28;13567;-77
2023/04/02 09:05:41;;;;;;;;;12.00;11.00;;;;;;;;5088554;28;13430;-76
2023/04/02 09:08:36;;;;;;;;;10.25;10.25;;;;;;;;5087109;28;14278;-76
2023/04/02 09:11:01;;;;;;;;;15.00;13.80;;;;;;;;5041309;28;13542;-77
2023/04/02 09:13:28;;;;;;;;;14.00;13.50;;;;;;;;5055894;28;13548;-74
2023/04/02 09:16:14;;;;;;;;;22.20;20.40;;;;;;;;5039568;28;14240;-75
2023/04/02 09:18:40;;;;;;;;;25.50;17.00;;;;;;;;5038595;28;13721;-74
2023/04/02 09:21:21;;;;;;;;;18.60;17.40;;;;;;;;5039184;28;13623;-74
2023/04/02 09:23:47;;;;;;;;;19.00;16.50;;;;;;;;5043059;28;13387;-75
2023/04/02 09:26:22;;;;;;;;;19.00;17.00;;;;;;;;5039164;28;13416;-74
2023/04/02 09:28:50;;;;;;;;;16.00;13.40;;;;;;;;5038837;28;13507;-73
2023/04/02 09:31:20;;;;;;;;;15.40;13.40;;;;;;;;5038867;28;13404;-76
2023/04/02 09:33:47;;;;;;;;;18.00;16.00;;;;;;;;5044129;28;14079;-76
2023/04/02 09:36:30;;;;;;;;;11.25;10.25;;;;;;;;5059372;28;14198;-76
2023/04/02 09:39:00;;;;;;;;;17.20;12.80;;;;;;;;5028218;28;13232;-72
2023/04/02 09:41:27;;;;;;;;;10.00;9.75;;;;;;;;5025910;28;13371;-72
2023/04/02 09:44:10;;;;;;;;;13.60;12.20;;;;;;;;5026412;28;14366;-73
2023/04/02 09:46:35;;;;;;;;;53.20;44.00;;;;;;;;5029533;28;13556;-69
2023/04/02 09:49:01;;;;;;;;;27.33;20.33;;;;;;;;5048029;28;13610;-73
2023/04/02 09:51:30;;;;;;;;;53.00;40.50;;;;;;;;5046563;28;13557;-72
2023/04/02 09:54:01;;;;;;;;;16.80;12.40;;;;;;;;5049579;28;13532;-72
2023/04/02 09:56:27;;;;;;;;;17.75;16.75;;;;;;;;5066680;28;13508;-70
2023/04/02 09:59:11;;;;;;;;;13.50;10.00;;;;;;;;5067291;28;13542;-71
2023/04/02 10:01:38;;;;;;;;;15.80;12.80;;;;;;;;5063643;28;13501;-69
2023/04/02 10:04:04;;;;;;;;;14.60;14.60;;;;;;;;5069070;28;13517;-68
2023/04/02 10:06:31;;;;;;;;;15.50;13.50;;;;;;;;5082753;28;13657;-69
2023/04/02 10:08:56;;;;;;;;;20.75;20.25;;;;;;;;5086837;28;13495;-69
2023/04/02 10:11:22;;;;;;;;;21.25;20.25;;;;;;;;5086913;28;14309;-71
2023/04/02 10:13:56;;;;;;;;;14.00;12.00;;;;;;;;5084354;28;13496;-68
2023/04/02 10:16:25;;;;;;;;;3.00;3.00;;;;;;;;5070110;28;13523;-74
2023/04/02 10:18:56;;;;;;;;;4.25;3.75;;;;;;;;5067830;28;13452;-77
2023/04/02 10:21:24;;;;;;;;;2.50;1.00;;;;;;;;5071256;28;13470;-74
2023/04/02 10:23:49;;;;;;;;;5.00;3.00;;;;;;;;5090930;28;13855;-76
2023/04/02 10:26:33;;;;;;;;;1.75;1.75;;;;;;;;5085012;28;14142;-75
2023/04/02 10:29:20;;;;;;;;;7.00;5.00;;;;;;;;5087532;28;13518;-77
2023/04/02 10:31:45;;;;;;;;;5.00;5.00;;;;;;;;5086025;28;13446;-76
2023/04/02 10:34:22;;;;;;;;;3.50;3.50;;;;;;;;5086887;28;13454;-76
2023/04/02 10:36:56;;;;;;;;;4.00;3.00;;;;;;;;5087330;28;13420;-77
2023/04/02 10:39:22;;;;;;;;;6.60;5.20;;;;;;;;5086574;28;14070;-80
2023/04/02 10:41:56;;;;;;;;;4.40;4.20;;;;;;;;5087937;28;14182;-77
2023/04/02 10:44:38;;;;;;;;;4.00;4.00;;;;;;;;5085133;28;13436;-75
2023/04/02 10:47:25;;;;;;;;;3.60;3.60;;;;;;;;5067591;28;13446;-72
2023/04/02 10:50:00;;;;;;;;;7.00;5.00;;;;;;;;5086498;28;13405;-74
2023/04/02 10:52:28;;;;;;;;;6.50;5.50;;;;;;;;5078068;28;13439;-74
2023/04/02 10:55:03;;;;;;;;;7.75;6.50;;;;;;;;5072113;28;13447;-73
2023/04/02 10:57:35;;;;;;;;;23.50;21.00;;;;;;;;5067745;28;13464;-76
2023/04/02 11:00:15;;;;;;;;;19.50;17.75;;;;;;;;5099523;28;13425;-77
2023/04/02 11:02:47;;;;;;;;;6.00;6.00;;;;;;;;5067824;28;13638;-75
2023/04/02 11:05:17;;;;;;;;;6.00;6.00;;;;;;;;5065903;28;13557;-77
2023/04/02 11:07:51;;;;;;;;;7.00;6.20;;;;;;;;5067377;28;13577;-76
2023/04/02 11:10:18;;;;;;;;;8.20;7.20;;;;;;;;5066884;28;13519;-76
2023/04/02 11:13:06;;;;;;;;;4.20;4.20;;;;;;;;5067207;28;13537;-75
2023/04/02 11:15:31;;;;;;;;;6.80;6.80;;;;;;;;5067086;28;13430;-76
2023/04/02 11:17:57;;;;;;;;;8.67;7.33;;;;;;;;5067809;28;13436;-76
2023/04/02 11:20:42;;;;;;;;;7.00;7.00;;;;;;;;5066872;28;14048;-77
2023/04/02 11:23:17;;;;;;;;;7.00;7.00;;;;;;;;5067118;28;13423;-77
2023/04/02 11:25:43;;;;;;;;;11.00;9.00;;;;;;;;5066584;28;13420;-77
2023/04/02 11:28:18;;;;;;;;;7.60;7.60;;;;;;;;5099818;28;14161;-76
2023/04/02 11:30:46;;;;;;;;;10.67;9.33;;;;;;;;5066854;28;13403;-77
2023/04/02 11:33:29;;;;;;;;;34.00;31.50;;;;;;;;5066982;28;13483;-76
2023/04/02 11:35:55;;;;;;;;;7.00;7.00;;;;;;;;5066998;28;14433;-75
2023/04/02 11:38:24;;;;;;;;;17.00;16.50;;;;;;;;5066887;28;13434;-76
2023/04/02 11:40:49;;;;;;;;;12.00;12.00;;;;;;;;5066450;28;13494;-76
2023/04/02 11:43:32;;;;;;;;;9.67;9.67;;;;;;;;5066637;28;13493;-76
2023/04/02 11:45:58;;;;;;;;;8.00;8.00;;;;;;;;5066758;28;13544;-75
2023/04/02 11:48:26;;;;;;;;;9.00;8.75;;;;;;;;5066583;28;13419;-76
2023/04/02 11:50:51;;;;;;;;;5.00;4.00;;;;;;;;5066842;28;13433;-76
2023/04/02 11:53:22;;;;;;;;;6.75;6.75;;;;;;;;5066544;28;13488;-77
2023/04/02 11:55:53;;;;;;;;;7.00;6.00;;;;;;;;5067242;28;13410;-77
2023/04/02 11:58:33;;;;;;;;;6.67;6.67;;;;;;;;5066870;28;13427;-76
2023/04/02 12:00:58;;;;;;;;;7.50;5.75;;;;;;;;5066826;28;13432;-76
2023/04/02 12:03:43;;;;;;;;;5.67;5.00;;;;;;;;5067057;28;13407;-76
2023/04/02 12:06:24;;;;;;;;;35.00;31.00;;;;;;;;5065928;28;13539;-76
2023/04/02 12:09:02;;;;;;;;;7.00;5.80;;;;;;;;5067183;28;13752;-77
2023/04/02 12:11:36;;;;;;;;;7.00;7.00;;;;;;;;5066298;28;13467;-77
2023/04/02 12:14:22;;;;;;;;;5.00;5.00;;;;;;;;5066324;28;13398;-76
2023/04/02 12:16:48;;;;;;;;;6.75;5.75;;;;;;;;5062419;28;13506;-77
2023/04/02 12:19:14;;;;;;;;;8.00;7.00;;;;;;;;5071716;22;13493;-76
2023/04/02 12:21:44;;;;;;;;;7.75;5.00;;;;;;;;5045746;28;13533;-77
2023/04/02 12:24:16;;;;;;;;;17.00;14.80;;;;;;;;5046402;28;13332;-77
2023/04/02 12:26:45;;;;;;;;;6.00;6.00;;;;;;;;5045042;28;14323;-76
2023/04/02 12:29:13;;;;;;;;;7.25;6.75;;;;;;;;5047394;28;13523;-77
2023/04/02 12:31:43;;;;;;;;;6.50;5.00;;;;;;;;5047491;28;13210;-76
2023/04/02 12:34:12;;;;;;;;;4.40;4.40;;;;;;;;5047587;28;13415;-77
2023/04/02 12:36:39;;;;;;;;;8.80;8.40;;;;;;;;5047386;28;13411;-78
2023/04/02 12:39:15;;;;;;;;;9.25;8.00;;;;;;;;5045684;28;13445;-77
2023/04/02 12:41:40;;;;;;;;;12.50;11.50;;;;;;;;5046349;28;13441;-77
2023/04/02 12:44:14;;;;;;;;;7.00;6.00;;;;;;;;5044880;28;14235;-76
2023/04/02 12:46:39;;;;;;;;;15.00;13.80;;;;;;;;5032014;28;13465;-76
2023/04/02 12:49:05;;;;;;;;;4.50;4.00;;;;;;;;5026936;28;13537;-77
2023/04/02 12:51:31;;;;;;;;;4.80;4.20;;;;;;;;5031407;28;13476;-78
2023/04/02 12:53:56;;;;;;;;;5.00;5.00;;;;;;;;5036877;28;13444;-78
2023/04/02 12:56:22;;;;;;;;;13.75;13.75;;;;;;;;5034916;28;14208;-77
2023/04/02 12:59:00;;;;;;;;;12.25;11.25;;;;;;;;5035206;28;13816;-78
2023/04/02 13:01:27;;;;;;;;;17.50;17.50;;;;;;;;5035472;28;13526;-78
2023/04/02 13:04:05;;;;;;;;;33.25;29.25;;;;;;;;5032552;28;14339;-76
2023/04/02 13:06:32;;;;;;;;;8.20;8.20;;;;;;;;5033675;28;13586;-77
2023/04/02 13:08:58;;;;;;;;;7.20;7.20;;;;;;;;5031297;28;13522;-80
2023/04/02 13:11:33;;;;;;;;;7.00;6.00;;;;;;;;5025038;28;13473;-74
2023/04/02 13:14:00;;;;;;;;;2.00;2.00;;;;;;;;5029026;28;13441;-75
2023/04/02 13:16:27;;;;;;;;;5.00;4.00;;;;;;;;5032269;28;13424;-76
2023/04/02 13:19:08;;;;;;;;;2.00;2.00;;;;;;;;5048674;28;14157;-77
2023/04/02 13:21:33;;;;;;;;;2.50;1.25;;;;;;;;5049824;28;13396;-77
2023/04/02 13:23:58;;;;;;;;;15.75;13.00;;;;;;;;5048701;28;13545;-78
2023/04/02 13:26:25;;;;;;;;;2.50;2.50;;;;;;;;5049843;28;13562;-78
2023/04/02 13:29:00;;;;;;;;;6.80;4.80;;;;;;;;5050186;28;13418;-79
2023/04/02 13:31:26;;;;;;;;;3.60;3.00;;;;;;;;5050311;28;13427;-77
2023/04/02 13:33:51;;;;;;;;;2.25;2.25;;;;;;;;5050209;28;13387;-77
2023/04/02 13:36:16;;;;;;;;;2.00;2.00;;;;;;;;5049724;28;13432;-77
2023/04/02 13:38:41;;;;;;;;;2.00;1.00;;;;;;;;5048722;28;13591;-78
2023/04/02 13:41:26;;;;;;;;;3.00;2.00;;;;;;;;5049847;28;14109;-77
2023/04/02 13:43:56;;;;;;;;;2.00;2.00;;;;;;;;5049912;28;13380;-77
2023/04/02 13:46:23;;;;;;;;;3.00;2.00;;;;;;;;5049633;28;13395;-77
2023/04/02 13:48:49;;;;;;;;;1.00;1.00;;;;;;;;5049985;28;14127;-77
2023/04/02 13:51:18;;;;;;;;;1.60;1.60;;;;;;;;5049877;28;14191;-78
2023/04/02 13:53:46;;;;;;;;;3.20;2.00;;;;;;;;5049133;28;13380;-78
2023/04/02 13:56:11;;;;;;;;;2.50;1.50;;;;;;;;5049691;28;13403;-78
2023/04/02 13:58:36;;;;;;;;;2.00;2.00;;;;;;;;5049174;28;13380;-78
2023/04/02 14:01:02;;;;;;;;;2.25;2.25;;;;;;;;5048249;28;14297;-78
2023/04/02 14:03:27;;;;;;;;;3.00;2.00;;;;;;;;5049573;28;13533;-78
2023/04/02 14:06:01;;;;;;;;;3.00;3.00;;;;;;;;5048101;28;13439;-77
2023/04/02 14:08:39;;;;;;;;;3.75;3.75;;;;;;;;5049604;28;13441;-77
2023/04/02 14:11:17;;;;;;;;;3.00;3.00;;;;;;;;5049410;28;14174;-77
2023/04/02 14:13:49;;;;;;;;;3.00;3.00;;;;;;;;5047654;28;13345;-78
2023/04/02 14:16:14;;;;;;;;;4.00;4.00;;;;;;;;5047932;28;13402;-78
2023/04/02 14:18:48;;;;;;;;;4.00;4.00;;;;;;;;5048381;28;13495;-78
2023/04/02 14:21:30;;;;;;;;;3.33;3.33;;;;;;;;5049086;28;13385;-78
2023/04/02 14:24:01;;;;;;;;;4.00;4.00;;;;;;;;5049070;28;13412;-79
2023/04/02 14:26:45;;;;;;;;;3.00;3.00;;;;;;;;5047898;28;13484;-73
2023/04/02 14:29:10;;;;;;;;;6.50;4.25;;;;;;;;5048612;28;14187;-70
2023/04/02 14:31:41;;;;;;;;;5.00;4.00;;;;;;;;5048909;28;13443;-77
2023/04/02 14:34:26;;;;;;;;;3.50;3.50;;;;;;;;5047718;28;13513;-72
2023/04/02 14:37:03;;;;;;;;;4.00;4.00;;;;;;;;5047674;28;13444;-73
2023/04/02 14:39:43;;;;;;;;;4.20;4.20;;;;;;;;5049011;28;14165;-72
2023/04/02 14:42:17;;;;;;;;;3.80;2.80;;;;;;;;5048876;28;13545;-77
2023/04/02 14:44:57;;;;;;;;;5.00;5.00;;;;;;;;5047206;28;13435;-71
2023/04/02 14:47:28;;;;;;;;;2.00;2.00;;;;;;;;5048453;28;13497;-75
2023/04/02 14:50:01;;;;;;;;;3.80;3.80;;;;;;;;5047420;28;14234;-77
2023/04/02 14:52:30;;;;;;;;;5.00;4.00;;;;;;;;5047324;28;14259;-76
2023/04/02 14:55:01;;;;;;;;;3.80;3.00;;;;;;;;5047244;28;13455;-75
2023/04/02 14:57:31;;;;;;;;;6.00;5.00;;;;;;;;5048526;28;13439;-76
2023/04/02 15:00:00;;;;;;;;;3.00;3.00;;;;;;;;5048471;28;13513;-75
2023/04/02 15:02:43;;;;;;;;;4.75;4.00;;;;;;;;5047866;28;13397;-77
2023/04/02 15:05:15;;;;;;;;;3.75;3.75;;;;;;;;5048376;28;13547;-76
2023/04/02 15:07:44;;;;;;;;;4.00;4.00;;;;;;;;5046989;28;13447;-76
2023/04/02 15:10:12;;;;;;;;;4.75;4.75;;;;;;;;5048520;28;13494;-76
2023/04/02 15:12:39;;;;;;;;;6.00;6.00;;;;;;;;5046884;28;13401;-76
2023/04/02 15:15:17;;;;;;;;;6.00;4.00;;;;;;;;5048279;28;13524;-76
2023/04/02 15:17:42;;;;;;;;;4.75;4.75;;;;;;;;5048152;28;13423;-76
2023/04/02 15:20:12;;;;;;;;;4.00;4.00;;;;;;;;5045753;22;13553;-69
2023/04/02 15:22:57;;;;;;;;;3.00;3.00;;;;;;;;5027330;28;13419;-69
2023/04/02 15:25:38;;;;;;;;;3.40;3.40;;;;;;;;5026749;28;13491;-69
2023/04/02 15:28:12;;;;;;;;;4.20;4.20;;;;;;;;5027129;28;13604;-69
2023/04/02 15:30:40;;;;;;;;;7.75;4.00;;;;;;;;5027291;28;14243;-70
2023/04/02 15:33:28;;;;;;;;;5.00;5.00;;;;;;;;5026959;28;13443;-68
2023/04/02 15:35:53;;;;;;;;;5.25;5.25;;;;;;;;5026385;28;14102;-69
